sensor_id;sensor_type;location;lat;lon;timestamp;P1;durP1;ratioP1;P2;durP2;ratioP2
3875;SDS011;1953;51.222;6.624;2023-02-15T00:02:28;58.07;;;28.53;;
3875;SDS011;1953;51.222;6.624;2023-02-15T00:09:46;62.87;;;29.53;;
3875;SDS011;1953;51.222;6.624;2023-02-15T00:14:28;55.63;;;27.50;;
3875;SDS011;1953;51.222;6.624;2023-02-15T00:19:12;53.50;;;27.80;;
3875;SDS011;1953;51.222;6.624;2023-02-15T00:23:56;52.27;;;27.37;;
3875;SDS011;1953;51.222;6.624;2023-02-15T00:28:41;55.43;;;28.17;;
3875;SDS011;1953;51.222;6.624;2023-02-15T00:33:24;49.13;;;26.73;;
3875;SDS011;1953;51.222;6.624;2023-02-15T00:38:06;58.50;;;28.10;;
3875;SDS011;1953;51.222;6.624;2023-02-15T00:42:49;52.67;;;27.70;;
3875;SDS011;1953;51.222;6.624;2023-02-15T00:47:33;57.90;;;29.50;;
3875;SDS011;1953;51.222;6.624;2023-02-15T00:52:15;62.33;;;29.00;;
3875;SDS011;1953;51.222;6.624;2023-02-15T00:56:58;57.37;;;28.40;;
3875;SDS011;1953;51.222;6.624;2023-02-15T01:01:40;55.07;;;28.60;;
3875;SDS011;1953;51.222;6.624;2023-02-15T01:06:24;57.03;;;27.93;;
3875;SDS011;1953;51.222;6.624;2023-02-15T01:11:07;55.13;;;27.93;;
3875;SDS011;1953;51.222;6.624;2023-02-15T01:15:53;58.47;;;28.77;;
3875;SDS011;1953;51.222;6.624;2023-02-15T01:20:38;59.57;;;29.17;;
3875;SDS011;1953;51.222;6.624;2023-02-15T01:25:23;58.10;;;28.47;;
3875;SDS011;1953;51.222;6.624;2023-02-15T01:30:06;56.20;;;28.80;;
3875;SDS011;1953;51.222;6.624;2023-02-15T01:34:49;57.10;;;28.57;;
3875;SDS011;1953;51.222;6.624;2023-02-15T01:39:32;61.60;;;29.40;;
3875;SDS011;1953;51.222;6.624;2023-02-15T01:49:33;61.67;;;30.33;;
3875;SDS011;1953;51.222;6.624;2023-02-15T01:54:17;58.70;;;29.90;;
3875;SDS011;1953;51.222;6.624;2023-02-15T01:59:06;57.20;;;28.90;;
3875;SDS011;1953;51.222;6.624;2023-02-15T02:03:56;61.23;;;29.93;;
3875;SDS011;1953;51.222;6.624;2023-02-15T02:08:42;57.63;;;28.43;;
3875;SDS011;1953;51.222;6.624;2023-02-15T02:13:25;60.97;;;29.87;;
3875;SDS011;1953;51.222;6.624;2023-02-15T02:18:12;58.13;;;30.03;;
3875;SDS011;1953;51.222;6.624;2023-02-15T02:28:13;59.87;;;29.20;;
3875;SDS011;1953;51.222;6.624;2023-02-15T02:33:11;58.20;;;28.60;;
3875;SDS011;1953;51.222;6.624;2023-02-15T02:38:03;53.20;;;28.07;;
3875;SDS011;1953;51.222;6.624;2023-02-15T02:42:52;60.53;;;29.60;;
3875;SDS011;1953;51.222;6.624;2023-02-15T02:47:41;59.37;;;29.13;;
3875;SDS011;1953;51.222;6.624;2023-02-15T02:52:36;58.17;;;28.73;;
3875;SDS011;1953;51.222;6.624;2023-02-15T02:57:20;58.13;;;28.17;;
3875;SDS011;1953;51.222;6.624;2023-02-15T03:02:07;61.23;;;29.43;;
3875;SDS011;1953;51.222;6.624;2023-02-15T03:06:54;53.53;;;26.53;;
3875;SDS011;1953;51.222;6.624;2023-02-15T03:11:44;55.87;;;27.87;;
3875;SDS011;1953;51.222;6.624;2023-02-15T03:16:27;60.47;;;28.93;;
3875;SDS011;1953;51.222;6.624;2023-02-15T03:21:10;53.83;;;26.60;;
3875;SDS011;1953;51.222;6.624;2023-02-15T03:26:03;56.83;;;28.10;;
3875;SDS011;1953;51.222;6.624;2023-02-15T03:30:52;56.93;;;28.23;;
3875;SDS011;1953;51.222;6.624;2023-02-15T03:35:39;57.37;;;27.40;;
3875;SDS011;1953;51.222;6.624;2023-02-15T03:40:28;57.90;;;28.07;;
3875;SDS011;1953;51.222;6.624;2023-02-15T03:45:31;57.80;;;27.70;;
3875;SDS011;1953;51.222;6.624;2023-02-15T03:50:17;59.53;;;28.10;;
3875;SDS011;1953;51.222;6.624;2023-02-15T03:55:20;61.30;;;28.10;;
3875;SDS011;1953;51.222;6.624;2023-02-15T04:00:03;59.70;;;28.43;;
3875;SDS011;1953;51.222;6.624;2023-02-15T04:05:06;61.67;;;28.00;;
3875;SDS011;1953;51.222;6.624;2023-02-15T04:09:50;60.10;;;28.23;;
3875;SDS011;1953;51.222;6.624;2023-02-15T04:14:49;59.40;;;27.90;;
3875;SDS011;1953;51.222;6.624;2023-02-15T04:19:49;59.63;;;27.47;;
3875;SDS011;1953;51.222;6.624;2023-02-15T04:24:51;54.33;;;26.40;;
3875;SDS011;1953;51.222;6.624;2023-02-15T04:29:52;53.23;;;26.17;;
3875;SDS011;1953;51.222;6.624;2023-02-15T04:34:34;54.53;;;26.57;;
3875;SDS011;1953;51.222;6.624;2023-02-15T04:39:17;62.13;;;27.47;;
3875;SDS011;1953;51.222;6.624;2023-02-15T04:44:02;58.70;;;28.47;;
3875;SDS011;1953;51.222;6.624;2023-02-15T04:48:44;59.10;;;27.60;;
3875;SDS011;1953;51.222;6.624;2023-02-15T04:53:27;59.40;;;27.70;;
3875;SDS011;1953;51.222;6.624;2023-02-15T04:58:09;50.20;;;25.40;;
3875;SDS011;1953;51.222;6.624;2023-02-15T05:02:53;50.63;;;26.00;;
3875;SDS011;1953;51.222;6.624;2023-02-15T05:07:36;55.87;;;26.27;;
3875;SDS011;1953;51.222;6.624;2023-02-15T05:12:18;55.23;;;26.80;;
3875;SDS011;1953;51.222;6.624;2023-02-15T05:17:01;51.17;;;25.00;;
3875;SDS011;1953;51.222;6.624;2023-02-15T05:21:45;50.00;;;24.60;;
3875;SDS011;1953;51.222;6.624;2023-02-15T05:26:27;55.70;;;26.00;;
3875;SDS011;1953;51.222;6.624;2023-02-15T05:31:27;51.57;;;26.50;;
3875;SDS011;1953;51.222;6.624;2023-02-15T05:36:10;56.87;;;26.67;;
3875;SDS011;1953;51.222;6.624;2023-02-15T05:40:54;55.87;;;27.00;;
3875;SDS011;1953;51.222;6.624;2023-02-15T05:45:37;53.97;;;25.67;;
3875;SDS011;1953;51.222;6.624;2023-02-15T05:50:19;57.23;;;26.00;;
3875;SDS011;1953;51.222;6.624;2023-02-15T05:55:02;57.47;;;26.83;;
3875;SDS011;1953;51.222;6.624;2023-02-15T05:59:46;53.67;;;24.83;;
3875;SDS011;1953;51.222;6.624;2023-02-15T06:04:02;56.20;;;26.10;;
3875;SDS011;1953;51.222;6.624;2023-02-15T06:08:44;52.90;;;26.63;;
3875;SDS011;1953;51.222;6.624;2023-02-15T06:13:27;53.00;;;25.70;;
3875;SDS011;1953;51.222;6.624;2023-02-15T06:18:11;58.03;;;26.37;;
3875;SDS011;1953;51.222;6.624;2023-02-15T06:22:53;52.20;;;25.33;;
3875;SDS011;1953;51.222;6.624;2023-02-15T06:27:35;54.40;;;25.60;;
3875;SDS011;1953;51.222;6.624;2023-02-15T06:32:18;58.20;;;24.17;;
3875;SDS011;1953;51.222;6.624;2023-02-15T06:37:02;51.90;;;24.83;;
3875;SDS011;1953;51.222;6.624;2023-02-15T06:41:44;52.23;;;25.07;;
3875;SDS011;1953;51.222;6.624;2023-02-15T06:46:27;52.27;;;24.37;;
3875;SDS011;1953;51.222;6.624;2023-02-15T06:51:10;54.93;;;25.43;;
3875;SDS011;1953;51.222;6.624;2023-02-15T06:55:59;51.07;;;24.43;;
3875;SDS011;1953;51.222;6.624;2023-02-15T07:00:43;52.43;;;25.47;;
3875;SDS011;1953;51.222;6.624;2023-02-15T07:05:26;53.47;;;24.97;;
3875;SDS011;1953;51.222;6.624;2023-02-15T07:10:11;49.83;;;25.27;;
3875;SDS011;1953;51.222;6.624;2023-02-15T07:14:55;49.00;;;23.50;;
3875;SDS011;1953;51.222;6.624;2023-02-15T07:19:38;49.80;;;21.80;;
3875;SDS011;1953;51.222;6.624;2023-02-15T07:24:21;49.47;;;23.23;;
3875;SDS011;1953;51.222;6.624;2023-02-15T07:29:03;49.20;;;24.43;;
3875;SDS011;1953;51.222;6.624;2023-02-15T07:33:47;52.50;;;25.23;;
3875;SDS011;1953;51.222;6.624;2023-02-15T07:38:30;49.90;;;23.80;;
3875;SDS011;1953;51.222;6.624;2023-02-15T07:43:14;52.37;;;24.13;;
3875;SDS011;1953;51.222;6.624;2023-02-15T07:47:56;45.20;;;21.73;;
3875;SDS011;1953;51.222;6.624;2023-02-15T07:52:40;43.63;;;22.60;;
3875;SDS011;1953;51.222;6.624;2023-02-15T07:57:23;42.83;;;21.77;;
3875;SDS011;1953;51.222;6.624;2023-02-15T08:02:05;45.17;;;22.40;;
3875;SDS011;1953;51.222;6.624;2023-02-15T08:06:52;48.97;;;24.50;;
3875;SDS011;1953;51.222;6.624;2023-02-15T08:11:37;51.23;;;23.70;;
3875;SDS011;1953;51.222;6.624;2023-02-15T08:16:21;43.50;;;22.23;;
3875;SDS011;1953;51.222;6.624;2023-02-15T08:21:05;50.30;;;24.47;;
3875;SDS011;1953;51.222;6.624;2023-02-15T08:25:47;46.90;;;22.67;;
3875;SDS011;1953;51.222;6.624;2023-02-15T08:30:31;44.20;;;22.97;;
3875;SDS011;1953;51.222;6.624;2023-02-15T08:35:13;45.33;;;21.67;;
3875;SDS011;1953;51.222;6.624;2023-02-15T08:39:56;44.07;;;21.40;;
3875;SDS011;1953;51.222;6.624;2023-02-15T08:44:38;40.60;;;22.00;;
3875;SDS011;1953;51.222;6.624;2023-02-15T08:49:22;43.23;;;22.70;;
3875;SDS011;1953;51.222;6.624;2023-02-15T08:54:05;46.53;;;22.57;;
3875;SDS011;1953;51.222;6.624;2023-02-15T08:58:49;45.60;;;22.50;;
3875;SDS011;1953;51.222;6.624;2023-02-15T09:03:32;40.93;;;22.10;;
3875;SDS011;1953;51.222;6.624;2023-02-15T09:08:15;41.67;;;22.33;;
3875;SDS011;1953;51.222;6.624;2023-02-15T09:12:58;52.20;;;21.10;;
3875;SDS011;1953;51.222;6.624;2023-02-15T09:17:40;34.00;;;19.53;;
3875;SDS011;1953;51.222;6.624;2023-02-15T09:22:23;41.13;;;22.60;;
3875;SDS011;1953;51.222;6.624;2023-02-15T09:27:07;38.00;;;20.43;;
3875;SDS011;1953;51.222;6.624;2023-02-15T09:31:50;38.73;;;21.10;;
3875;SDS011;1953;51.222;6.624;2023-02-15T09:36:34;41.30;;;22.10;;
3875;SDS011;1953;51.222;6.624;2023-02-15T09:41:29;39.00;;;19.70;;
3875;SDS011;1953;51.222;6.624;2023-02-15T09:46:40;35.83;;;20.53;;
3875;SDS011;1953;51.222;6.624;2023-02-15T09:51:45;51.87;;;23.90;;
3875;SDS011;1953;51.222;6.624;2023-02-15T09:56:56;37.70;;;19.70;;
3875;SDS011;1953;51.222;6.624;2023-02-15T10:01:44;35.80;;;21.00;;
3875;SDS011;1953;51.222;6.624;2023-02-15T10:06:35;36.67;;;19.20;;
3875;SDS011;1953;51.222;6.624;2023-02-15T10:11:25;34.87;;;20.20;;
3875;SDS011;1953;51.222;6.624;2023-02-15T10:16:22;38.40;;;21.63;;
3875;SDS011;1953;51.222;6.624;2023-02-15T10:21:14;37.73;;;21.43;;
3875;SDS011;1953;51.222;6.624;2023-02-15T10:26:07;32.27;;;19.50;;
3875;SDS011;1953;51.222;6.624;2023-02-15T10:30:58;35.20;;;19.97;;
3875;SDS011;1953;51.222;6.624;2023-02-15T10:35:52;34.83;;;20.07;;
3875;SDS011;1953;51.222;6.624;2023-02-15T10:40:44;35.70;;;19.83;;
3875;SDS011;1953;51.222;6.624;2023-02-15T10:45:35;39.60;;;20.87;;
3875;SDS011;1953;51.222;6.624;2023-02-15T10:50:26;35.03;;;20.40;;
3875;SDS011;1953;51.222;6.624;2023-02-15T10:55:18;34.70;;;21.30;;
3875;SDS011;1953;51.222;6.624;2023-02-15T11:00:11;36.07;;;20.50;;
3875;SDS011;1953;51.222;6.624;2023-02-15T11:05:02;32.83;;;19.37;;
3875;SDS011;1953;51.222;6.624;2023-02-15T11:10:01;37.10;;;21.83;;
3875;SDS011;1953;51.222;6.624;2023-02-15T11:14:56;33.33;;;20.53;;
3875;SDS011;1953;51.222;6.624;2023-02-15T11:19:47;37.63;;;20.40;;
3875;SDS011;1953;51.222;6.624;2023-02-15T11:24:36;35.23;;;20.20;;
3875;SDS011;1953;51.222;6.624;2023-02-15T11:29:25;30.70;;;19.73;;
3875;SDS011;1953;51.222;6.624;2023-02-15T11:34:13;40.33;;;20.60;;
3875;SDS011;1953;51.222;6.624;2023-02-15T11:39:05;33.13;;;19.90;;
3875;SDS011;1953;51.222;6.624;2023-02-15T11:43:54;35.00;;;19.83;;
3875;SDS011;1953;51.222;6.624;2023-02-15T11:48:41;29.80;;;18.33;;
3875;SDS011;1953;51.222;6.624;2023-02-15T11:53:24;33.90;;;19.70;;
3875;SDS011;1953;51.222;6.624;2023-02-15T11:58:16;28.40;;;18.17;;
3875;SDS011;1953;51.222;6.624;2023-02-15T12:03:13;32.97;;;19.90;;
3875;SDS011;1953;51.222;6.624;2023-02-15T12:10:51;32.13;;;18.77;;
3875;SDS011;1953;51.222;6.624;2023-02-15T12:15:40;30.47;;;19.30;;
3875;SDS011;1953;51.222;6.624;2023-02-15T12:20:28;33.00;;;19.83;;
3875;SDS011;1953;51.222;6.624;2023-02-15T12:25:19;29.10;;;19.17;;
3875;SDS011;1953;51.222;6.624;2023-02-15T12:30:06;32.07;;;19.80;;
3875;SDS011;1953;51.222;6.624;2023-02-15T12:34:59;31.53;;;19.27;;
3875;SDS011;1953;51.222;6.624;2023-02-15T12:39:50;28.60;;;19.07;;
3875;SDS011;1953;51.222;6.624;2023-02-15T12:44:34;30.17;;;19.43;;
3875;SDS011;1953;51.222;6.624;2023-02-15T12:49:19;34.40;;;19.57;;
3875;SDS011;1953;51.222;6.624;2023-02-15T12:54:08;31.63;;;18.60;;
3875;SDS011;1953;51.222;6.624;2023-02-15T12:59:12;32.43;;;20.23;;
3875;SDS011;1953;51.222;6.624;2023-02-15T13:03:57;30.07;;;19.70;;
3875;SDS011;1953;51.222;6.624;2023-02-15T13:08:45;33.30;;;21.10;;
3875;SDS011;1953;51.222;6.624;2023-02-15T13:13:30;30.43;;;19.80;;
3875;SDS011;1953;51.222;6.624;2023-02-15T13:18:16;34.93;;;21.10;;
3875;SDS011;1953;51.222;6.624;2023-02-15T13:23:02;31.47;;;20.40;;
3875;SDS011;1953;51.222;6.624;2023-02-15T13:27:54;37.47;;;20.50;;
3875;SDS011;1953;51.222;6.624;2023-02-15T13:32:39;32.87;;;20.20;;
3875;SDS011;1953;51.222;6.624;2023-02-15T13:37:33;27.30;;;19.30;;
3875;SDS011;1953;51.222;6.624;2023-02-15T13:42:27;27.60;;;20.00;;
3875;SDS011;1953;51.222;6.624;2023-02-15T13:47:17;27.10;;;18.83;;
3875;SDS011;1953;51.222;6.624;2023-02-15T13:52:06;26.93;;;18.03;;
3875;SDS011;1953;51.222;6.624;2023-02-15T13:57:01;24.83;;;18.97;;
3875;SDS011;1953;51.222;6.624;2023-02-15T14:01:55;33.43;;;19.93;;
3875;SDS011;1953;51.222;6.624;2023-02-15T14:06:45;29.87;;;20.17;;
3875;SDS011;1953;51.222;6.624;2023-02-15T14:11:36;27.77;;;18.57;;
3875;SDS011;1953;51.222;6.624;2023-02-15T14:16:28;29.20;;;19.00;;
3875;SDS011;1953;51.222;6.624;2023-02-15T14:21:19;27.00;;;18.77;;
3875;SDS011;1953;51.222;6.624;2023-02-15T14:26:11;30.07;;;19.90;;
3875;SDS011;1953;51.222;6.624;2023-02-15T14:31:00;24.07;;;17.40;;
3875;SDS011;1953;51.222;6.624;2023-02-15T14:35:47;29.37;;;18.50;;
3875;SDS011;1953;51.222;6.624;2023-02-15T14:40:34;30.37;;;19.10;;
3875;SDS011;1953;51.222;6.624;2023-02-15T14:45:45;27.23;;;19.13;;
3875;SDS011;1953;51.222;6.624;2023-02-15T14:50:38;27.90;;;19.73;;
3875;SDS011;1953;51.222;6.624;2023-02-15T14:55:34;27.80;;;18.67;;
3875;SDS011;1953;51.222;6.624;2023-02-15T15:05:23;26.57;;;18.43;;
3875;SDS011;1953;51.222;6.624;2023-02-15T15:15:32;29.07;;;19.77;;
3875;SDS011;1953;51.222;6.624;2023-02-15T15:20:30;30.70;;;18.70;;
3875;SDS011;1953;51.222;6.624;2023-02-15T15:25:42;29.60;;;18.57;;
3875;SDS011;1953;51.222;6.624;2023-02-15T15:35:50;29.60;;;18.43;;
3875;SDS011;1953;51.222;6.624;2023-02-15T15:41:03;30.33;;;19.17;;
3875;SDS011;1953;51.222;6.624;2023-02-15T15:46:04;34.07;;;18.93;;
3875;SDS011;1953;51.222;6.624;2023-02-15T15:50:58;33.97;;;21.43;;
3875;SDS011;1953;51.222;6.624;2023-02-15T15:55:42;30.93;;;19.30;;
3875;SDS011;1953;51.222;6.624;2023-02-15T16:00:35;33.47;;;19.70;;
3875;SDS011;1953;51.222;6.624;2023-02-15T16:05:21;38.03;;;24.50;;
3875;SDS011;1953;51.222;6.624;2023-02-15T16:10:06;38.53;;;20.10;;
3875;SDS011;1953;51.222;6.624;2023-02-15T16:15:01;29.97;;;20.07;;
3875;SDS011;1953;51.222;6.624;2023-02-15T16:19:46;32.80;;;20.53;;
3875;SDS011;1953;51.222;6.624;2023-02-15T16:24:52;76.17;;;35.33;;
3875;SDS011;1953;51.222;6.624;2023-02-15T16:35:13;48.67;;;31.37;;
3875;SDS011;1953;51.222;6.624;2023-02-15T16:39:56;44.57;;;29.70;;
3875;SDS011;1953;51.222;6.624;2023-02-15T16:44:39;33.40;;;22.10;;
3875;SDS011;1953;51.222;6.624;2023-02-15T16:49:24;32.60;;;20.93;;
3875;SDS011;1953;51.222;6.624;2023-02-15T16:54:13;31.70;;;20.33;;
3875;SDS011;1953;51.222;6.624;2023-02-15T16:58:58;34.27;;;19.70;;
3875;SDS011;1953;51.222;6.624;2023-02-15T17:03:42;36.10;;;21.00;;
3875;SDS011;1953;51.222;6.624;2023-02-15T17:08:27;31.60;;;22.20;;
3875;SDS011;1953;51.222;6.624;2023-02-15T17:13:11;33.77;;;21.70;;
3875;SDS011;1953;51.222;6.624;2023-02-15T17:17:55;33.40;;;21.00;;
3875;SDS011;1953;51.222;6.624;2023-02-15T17:22:39;37.03;;;22.43;;
3875;SDS011;1953;51.222;6.624;2023-02-15T17:27:24;37.17;;;23.27;;
3875;SDS011;1953;51.222;6.624;2023-02-15T17:32:12;43.73;;;26.13;;
3875;SDS011;1953;51.222;6.624;2023-02-15T17:36:59;62.33;;;38.33;;
3875;SDS011;1953;51.222;6.624;2023-02-15T17:41:42;59.97;;;37.70;;
3875;SDS011;1953;51.222;6.624;2023-02-15T17:46:27;54.30;;;33.10;;
3875;SDS011;1953;51.222;6.624;2023-02-15T17:51:15;52.80;;;33.20;;
3875;SDS011;1953;51.222;6.624;2023-02-15T17:55:59;43.87;;;26.33;;
3875;SDS011;1953;51.222;6.624;2023-02-15T18:00:51;39.07;;;23.60;;
3875;SDS011;1953;51.222;6.624;2023-02-15T18:05:55;38.57;;;24.40;;
3875;SDS011;1953;51.222;6.624;2023-02-15T18:10:56;36.17;;;22.70;;
3875;SDS011;1953;51.222;6.624;2023-02-15T18:15:55;36.53;;;21.67;;
3875;SDS011;1953;51.222;6.624;2023-02-15T18:20:38;44.67;;;26.30;;
3875;SDS011;1953;51.222;6.624;2023-02-15T18:25:24;40.33;;;25.83;;
3875;SDS011;1953;51.222;6.624;2023-02-15T18:30:07;42.43;;;23.90;;
3875;SDS011;1953;51.222;6.624;2023-02-15T18:34:55;33.00;;;21.60;;
3875;SDS011;1953;51.222;6.624;2023-02-15T18:39:39;37.57;;;21.20;;
3875;SDS011;1953;51.222;6.624;2023-02-15T18:44:27;38.20;;;24.23;;
3875;SDS011;1953;51.222;6.624;2023-02-15T18:49:10;43.47;;;29.03;;
3875;SDS011;1953;51.222;6.624;2023-02-15T18:53:52;36.17;;;23.03;;
3875;SDS011;1953;51.222;6.624;2023-02-15T18:58:35;37.13;;;22.80;;
3875;SDS011;1953;51.222;6.624;2023-02-15T19:03:18;38.67;;;23.80;;
3875;SDS011;1953;51.222;6.624;2023-02-15T19:08:01;37.33;;;20.70;;
3875;SDS011;1953;51.222;6.624;2023-02-15T19:12:44;36.10;;;23.70;;
3875;SDS011;1953;51.222;6.624;2023-02-15T19:17:27;36.20;;;22.53;;
3875;SDS011;1953;51.222;6.624;2023-02-15T19:22:12;34.67;;;21.80;;
3875;SDS011;1953;51.222;6.624;2023-02-15T19:26:55;32.40;;;19.67;;
3875;SDS011;1953;51.222;6.624;2023-02-15T19:31:38;32.80;;;20.00;;
3875;SDS011;1953;51.222;6.624;2023-02-15T19:36:20;36.33;;;21.40;;
3875;SDS011;1953;51.222;6.624;2023-02-15T19:41:05;36.30;;;22.20;;
3875;SDS011;1953;51.222;6.624;2023-02-15T19:45:49;36.83;;;21.60;;
3875;SDS011;1953;51.222;6.624;2023-02-15T19:50:32;34.90;;;21.37;;
3875;SDS011;1953;51.222;6.624;2023-02-15T19:55:17;35.00;;;21.40;;
3875;SDS011;1953;51.222;6.624;2023-02-15T20:00:07;34.00;;;22.10;;
3875;SDS011;1953;51.222;6.624;2023-02-15T20:04:57;33.70;;;21.43;;
3875;SDS011;1953;51.222;6.624;2023-02-15T20:09:40;33.97;;;22.13;;
3875;SDS011;1953;51.222;6.624;2023-02-15T20:14:23;37.80;;;21.90;;
3875;SDS011;1953;51.222;6.624;2023-02-15T20:19:06;39.20;;;21.03;;
3875;SDS011;1953;51.222;6.624;2023-02-15T20:23:49;33.50;;;21.60;;
3875;SDS011;1953;51.222;6.624;2023-02-15T20:28:31;44.17;;;27.27;;
3875;SDS011;1953;51.222;6.624;2023-02-15T20:33:14;48.73;;;26.20;;
3875;SDS011;1953;51.222;6.624;2023-02-15T20:37:58;48.90;;;28.43;;
3875;SDS011;1953;51.222;6.624;2023-02-15T20:42:42;39.37;;;25.07;;
3875;SDS011;1953;51.222;6.624;2023-02-15T20:47:25;35.80;;;23.63;;
3875;SDS011;1953;51.222;6.624;2023-02-15T20:52:13;37.07;;;21.43;;
3875;SDS011;1953;51.222;6.624;2023-02-15T20:57:01;38.00;;;22.80;;
3875;SDS011;1953;51.222;6.624;2023-02-15T21:01:45;35.97;;;22.90;;
3875;SDS011;1953;51.222;6.624;2023-02-15T21:06:28;38.50;;;23.73;;
3875;SDS011;1953;51.222;6.624;2023-02-15T21:11:14;37.17;;;22.20;;
3875;SDS011;1953;51.222;6.624;2023-02-15T21:16:00;37.37;;;23.37;;
3875;SDS011;1953;51.222;6.624;2023-02-15T21:20:44;37.97;;;22.77;;
3875;SDS011;1953;51.222;6.624;2023-02-15T21:25:28;36.67;;;22.10;;
3875;SDS011;1953;51.222;6.624;2023-02-15T21:30:13;36.97;;;22.07;;
3875;SDS011;1953;51.222;6.624;2023-02-15T21:34:58;37.40;;;22.03;;
3875;SDS011;1953;51.222;6.624;2023-02-15T21:39:41;39.47;;;22.27;;
3875;SDS011;1953;51.222;6.624;2023-02-15T21:44:23;40.10;;;21.77;;
3875;SDS011;1953;51.222;6.624;2023-02-15T21:49:23;38.27;;;22.63;;
3875;SDS011;1953;51.222;6.624;2023-02-15T21:54:09;34.17;;;21.60;;
3875;SDS011;1953;51.222;6.624;2023-02-15T21:58:53;39.90;;;23.00;;
3875;SDS011;1953;51.222;6.624;2023-02-15T22:03:36;39.40;;;23.40;;
3875;SDS011;1953;51.222;6.624;2023-02-15T22:08:19;36.70;;;21.60;;
3875;SDS011;1953;51.222;6.624;2023-02-15T22:13:03;44.60;;;21.70;;
3875;SDS011;1953;51.222;6.624;2023-02-15T22:17:46;40.00;;;23.60;;
3875;SDS011;1953;51.222;6.624;2023-02-15T22:22:28;40.50;;;22.57;;
3875;SDS011;1953;51.222;6.624;2023-02-15T22:27:16;40.07;;;22.13;;
3875;SDS011;1953;51.222;6.624;2023-02-15T22:32:02;40.60;;;24.33;;
3875;SDS011;1953;51.222;6.624;2023-02-15T22:36:44;42.47;;;23.23;;
3875;SDS011;1953;51.222;6.624;2023-02-15T22:41:27;39.73;;;23.70;;
3875;SDS011;1953;51.222;6.624;2023-02-15T22:46:12;38.87;;;22.70;;
3875;SDS011;1953;51.222;6.624;2023-02-15T22:50:58;45.70;;;26.10;;
3875;SDS011;1953;51.222;6.624;2023-02-15T22:55:40;45.30;;;23.27;;
3875;SDS011;1953;51.222;6.624;2023-02-15T23:00:24;43.73;;;23.73;;
3875;SDS011;1953;51.222;6.624;2023-02-15T23:05:13;47.53;;;24.57;;
3875;SDS011;1953;51.222;6.624;2023-02-15T23:09:59;43.70;;;24.80;;
3875;SDS011;1953;51.222;6.624;2023-02-15T23:14:42;43.80;;;23.60;;
3875;SDS011;1953;51.222;6.624;2023-02-15T23:19:24;49.63;;;24.90;;
3875;SDS011;1953;51.222;6.624;2023-02-15T23:24:09;49.20;;;24.03;;
3875;SDS011;1953;51.222;6.624;2023-02-15T23:28:59;46.00;;;24.07;;
3875;SDS011;1953;51.222;6.624;2023-02-15T23:33:43;43.40;;;24.60;;
3875;SDS011;1953;51.222;6.624;2023-02-15T23:38:27;41.77;;;23.23;;
3875;SDS011;1953;51.222;6.624;2023-02-15T23:43:10;47.47;;;26.93;;
3875;SDS011;1953;51.222;6.624;2023-02-15T23:48:01;47.03;;;24.83;;
3875;SDS011;1953;51.222;6.624;2023-02-15T23:53:02;45.00;;;24.60;;
3875;SDS011;1953;51.222;6.624;2023-02-15T23:57:44;44.10;;;24.40;;
